SCX3050 KLAL-KTOL
Flight info
| Callsign | SCX3050 |
|---|---|
| Flight time | 2h 21m |
| Altitude | 37000 |
| Route | NITTS WILON CAMJO SPA APE |
| Aircraft | B738/M-SDE2E3FGHIRWXY/LB1 |
Departure
| Time | 2026-05-05 20:31 |
|---|---|
| Airport | Lakeland Linder International Airport (KLAL) |
Arrival
| Time | 2026-05-05 22:52 |
|---|---|
| Airport | Eugene F. Kranz Toledo Express Airport (KTOL) |
| Time | Latitude | Longitude | Altitude | Speed | Heading |
|---|---|---|---|---|---|
| 2026-05-05 20:02 | 27.99208 | -82.03371 | 133 ft | 0 kts | 0° |
| 2026-05-05 20:23 | 27.99206 | -82.03371 | 132 ft | 1 kts | 0° |
| 2026-05-05 20:24 | 27.99191 | -82.03371 | 132 ft | 2 kts | 360° |
| 2026-05-05 20:24 | 27.99176 | -82.03371 | 132 ft | 2 kts | 360° |
| 2026-05-05 20:24 | 27.99161 | -82.03371 | 132 ft | 2 kts | 18° |
| 2026-05-05 20:24 | 27.99148 | -82.03380 | 132 ft | 2 kts | 45° |
| 2026-05-05 20:25 | 27.99140 | -82.03394 | 132 ft | 2 kts | 73° |
| 2026-05-05 20:25 | 27.99138 | -82.03404 | 132 ft | 1 kts | 90° |
| 2026-05-05 20:25 | 27.99138 | -82.03412 | 132 ft | 0 kts | 91° |
| 2026-05-05 20:27 | 27.99138 | -82.03410 | 132 ft | 1 kts | 91° |
| 2026-05-05 20:27 | 27.99138 | -82.03372 | 132 ft | 5 kts | 90° |
| 2026-05-05 20:27 | 27.99138 | -82.03335 | 132 ft | 4 kts | 90° |
| 2026-05-05 20:28 | 27.99127 | -82.03304 | 132 ft | 5 kts | 167° |
| 2026-05-05 20:28 | 27.99084 | -82.03303 | 132 ft | 6 kts | 179° |
| 2026-05-05 20:28 | 27.99036 | -82.03327 | 132 ft | 7 kts | 246° |
| 2026-05-05 20:28 | 27.99020 | -82.03369 | 132 ft | 2 kts | 219° |
| 2026-05-05 20:29 | 27.99018 | -82.03371 | 132 ft | 0 kts | 210° |
| 2026-05-05 20:29 | 27.98996 | -82.03377 | 132 ft | 7 kts | 186° |
| 2026-05-05 20:29 | 27.98941 | -82.03378 | 132 ft | 7 kts | 179° |
| 2026-05-05 20:30 | 27.98924 | -82.03365 | 132 ft | 2 kts | 88° |
| 2026-05-05 20:30 | 27.98925 | -82.03317 | 132 ft | 20 kts | 89° |
| 2026-05-05 20:30 | 27.98926 | -82.02887 | 128 ft | 87 kts | 89° |
| 2026-05-05 20:30 | 27.98928 | -82.01967 | 133 ft | 143 kts | 89° |
| 2026-05-05 20:31 | 27.98932 | -82.00678 | 298 ft | 175 kts | 90° |
| 2026-05-05 20:31 | 27.98918 | -81.99358 | 1065 ft | 168 kts | 91° |
| 2026-05-05 20:31 | 27.98910 | -81.98038 | 1587 ft | 176 kts | 89° |
| 2026-05-05 20:31 | 27.98979 | -81.96615 | 1934 ft | 186 kts | 76° |
| 2026-05-05 20:32 | 27.99723 | -81.95407 | 2202 ft | 202 kts | 33° |
| 2026-05-05 20:32 | 28.01143 | -81.95064 | 2455 ft | 221 kts | 358° |
| 2026-05-05 20:32 | 28.02747 | -81.95294 | 2736 ft | 238 kts | 351° |
| 2026-05-05 20:32 | 28.04323 | -81.95946 | 3118 ft | 250 kts | 331° |
| 2026-05-05 20:33 | 28.05839 | -81.97031 | 3515 ft | 262 kts | 327° |
| 2026-05-05 20:33 | 28.07364 | -81.98189 | 3968 ft | 271 kts | 326° |
| 2026-05-05 20:33 | 28.08947 | -81.99394 | 4528 ft | 275 kts | 326° |
| 2026-05-05 20:33 | 28.10552 | -82.00611 | 5111 ft | 278 kts | 326° |
| 2026-05-05 20:34 | 28.12140 | -82.01814 | 5721 ft | 279 kts | 326° |
| 2026-05-05 20:34 | 28.13766 | -82.03049 | 6333 ft | 281 kts | 326° |
| 2026-05-05 20:34 | 28.15389 | -82.04285 | 6960 ft | 283 kts | 326° |
| 2026-05-05 20:34 | 28.17023 | -82.05532 | 7612 ft | 284 kts | 325° |
| 2026-05-05 20:35 | 28.18660 | -82.06773 | 8284 ft | 284 kts | 325° |
| 2026-05-05 20:35 | 28.20298 | -82.08018 | 8960 ft | 285 kts | 325° |
| 2026-05-05 20:35 | 28.21948 | -82.09278 | 9614 ft | 287 kts | 324° |
| 2026-05-05 20:35 | 28.23587 | -82.10538 | 10270 ft | 289 kts | 324° |
| 2026-05-05 20:36 | 28.25278 | -82.11850 | 10725 ft | 299 kts | 324° |
| 2026-05-05 20:36 | 28.27027 | -82.13181 | 11291 ft | 305 kts | 324° |
| 2026-05-05 20:36 | 28.28762 | -82.14503 | 12007 ft | 304 kts | 324° |
| 2026-05-05 20:36 | 28.30512 | -82.15825 | 12764 ft | 302 kts | 324° |
| 2026-05-05 20:37 | 28.32260 | -82.17162 | 13467 ft | 303 kts | 324° |
| 2026-05-05 20:37 | 28.34014 | -82.18506 | 14108 ft | 306 kts | 324° |
| 2026-05-05 20:37 | 28.35796 | -82.19875 | 14721 ft | 311 kts | 324° |
| 2026-05-05 20:37 | 28.37589 | -82.21250 | 15368 ft | 314 kts | 324° |
| 2026-05-05 20:38 | 28.39378 | -82.22621 | 16064 ft | 314 kts | 324° |
| 2026-05-05 20:38 | 28.41189 | -82.24008 | 16710 ft | 316 kts | 324° |
| 2026-05-05 20:38 | 28.43011 | -82.25405 | 17351 ft | 318 kts | 324° |
| 2026-05-05 20:38 | 28.44847 | -82.26814 | 17973 ft | 319 kts | 324° |
| 2026-05-05 20:39 | 28.46690 | -82.28229 | 18565 ft | 322 kts | 324° |
| 2026-05-05 20:39 | 28.48544 | -82.29652 | 19160 ft | 323 kts | 323° |
| 2026-05-05 20:39 | 28.50416 | -82.31088 | 19689 ft | 326 kts | 323° |
| 2026-05-05 20:39 | 28.52301 | -82.32536 | 20227 ft | 329 kts | 323° |
| 2026-05-05 20:40 | 28.54194 | -82.33993 | 20722 ft | 332 kts | 323° |
| 2026-05-05 20:40 | 28.56106 | -82.35463 | 21266 ft | 333 kts | 323° |
| 2026-05-05 20:40 | 28.58015 | -82.36932 | 21765 ft | 335 kts | 323° |
| 2026-05-05 20:40 | 28.59948 | -82.38420 | 22276 ft | 336 kts | 322° |
| 2026-05-05 20:41 | 28.61891 | -82.39915 | 22747 ft | 338 kts | 322° |
| 2026-05-05 20:41 | 28.63841 | -82.41417 | 23234 ft | 340 kts | 323° |
| 2026-05-05 20:41 | 28.65796 | -82.42923 | 23737 ft | 341 kts | 323° |
| 2026-05-05 20:41 | 28.67771 | -82.44446 | 24210 ft | 342 kts | 323° |
| 2026-05-05 20:42 | 28.69744 | -82.45969 | 24681 ft | 343 kts | 323° |
| 2026-05-05 20:42 | 28.71730 | -82.47477 | 25128 ft | 345 kts | 324° |
| 2026-05-05 20:42 | 28.73809 | -82.48866 | 25544 ft | 349 kts | 329° |
| 2026-05-05 20:42 | 28.76061 | -82.49946 | 25975 ft | 353 kts | 336° |
| 2026-05-05 20:43 | 28.78417 | -82.50761 | 26403 ft | 356 kts | 340° |
| 2026-05-05 20:43 | 28.80827 | -82.51464 | 26828 ft | 358 kts | 340° |
| 2026-05-05 20:43 | 28.83233 | -82.52132 | 27179 ft | 360 kts | 341° |
| 2026-05-05 20:43 | 28.85676 | -82.52811 | 27605 ft | 360 kts | 341° |
| 2026-05-05 20:44 | 28.88114 | -82.53501 | 28017 ft | 360 kts | 341° |
| 2026-05-05 20:44 | 28.90562 | -82.54205 | 28362 ft | 362 kts | 340° |
| 2026-05-05 20:44 | 28.92982 | -82.54909 | 28716 ft | 363 kts | 340° |
| 2026-05-05 20:44 | 28.95426 | -82.55624 | 29106 ft | 363 kts | 340° |
| 2026-05-05 20:45 | 29.00366 | -82.57077 | 29745 ft | 367 kts | 340° |
| 2026-05-05 20:45 | 29.02844 | -82.57806 | 30085 ft | 368 kts | 340° |
| 2026-05-05 20:45 | 29.05316 | -82.58533 | 30481 ft | 367 kts | 340° |
| 2026-05-05 20:46 | 29.07800 | -82.59264 | 30734 ft | 369 kts | 340° |
| 2026-05-05 20:46 | 29.10299 | -82.60001 | 31044 ft | 370 kts | 340° |
| 2026-05-05 20:46 | 29.12790 | -82.60736 | 31339 ft | 372 kts | 339° |
| 2026-05-05 20:46 | 29.15302 | -82.61478 | 31721 ft | 371 kts | 339° |
| 2026-05-05 20:47 | 29.17821 | -82.62222 | 32007 ft | 373 kts | 339° |
| 2026-05-05 20:47 | 29.20320 | -82.62960 | 32250 ft | 375 kts | 339° |
| 2026-05-05 20:47 | 29.22851 | -82.63706 | 32570 ft | 375 kts | 339° |
| 2026-05-05 20:47 | 29.25387 | -82.64454 | 32886 ft | 376 kts | 339° |
| 2026-05-05 20:48 | 29.27913 | -82.65202 | 33105 ft | 378 kts | 338° |
| 2026-05-05 20:48 | 29.30469 | -82.65959 | 33525 ft | 377 kts | 339° |
| 2026-05-05 20:48 | 29.33027 | -82.66718 | 33747 ft | 380 kts | 339° |
| 2026-05-05 20:48 | 29.35599 | -82.67481 | 34038 ft | 382 kts | 338° |
| 2026-05-05 20:49 | 29.38145 | -82.68224 | 34472 ft | 381 kts | 339° |
| 2026-05-05 20:49 | 29.40774 | -82.68876 | 34732 ft | 386 kts | 342° |
| 2026-05-05 20:49 | 29.43440 | -82.69267 | 34931 ft | 394 kts | 347° |
| 2026-05-05 20:49 | 29.46208 | -82.69401 | 35284 ft | 397 kts | 350° |
| 2026-05-05 20:50 | 29.48978 | -82.69402 | 35747 ft | 396 kts | 351° |
| 2026-05-05 20:50 | 29.51730 | -82.69355 | 36259 ft | 392 kts | 351° |
| 2026-05-05 20:50 | 29.54444 | -82.69302 | 36583 ft | 391 kts | 351° |
| 2026-05-05 20:50 | 29.57173 | -82.69258 | 36886 ft | 391 kts | 350° |
| 2026-05-05 20:51 | 29.62683 | -82.69202 | 36967 ft | 394 kts | 351° |
| 2026-05-05 20:51 | 29.68180 | -82.69156 | 36969 ft | 391 kts | 350° |
| 2026-05-05 20:52 | 29.73629 | -82.69122 | 36968 ft | 393 kts | 350° |
| 2026-05-05 20:52 | 29.79218 | -82.69091 | 36963 ft | 391 kts | 350° |
| 2026-05-05 20:53 | 29.84668 | -82.69054 | 36962 ft | 390 kts | 350° |
| 2026-05-05 20:53 | 29.90101 | -82.69019 | 36955 ft | 392 kts | 350° |
| 2026-05-05 20:54 | 29.95560 | -82.68990 | 36957 ft | 392 kts | 350° |
| 2026-05-05 20:54 | 30.01039 | -82.68955 | 36961 ft | 392 kts | 350° |
| 2026-05-05 20:55 | 30.06485 | -82.68913 | 36973 ft | 388 kts | 350° |
| 2026-05-05 20:55 | 30.11931 | -82.68878 | 36983 ft | 391 kts | 350° |
| 2026-05-05 20:56 | 30.17371 | -82.68842 | 36990 ft | 392 kts | 350° |
| 2026-05-05 20:56 | 30.22810 | -82.68806 | 36990 ft | 388 kts | 350° |
| 2026-05-05 20:57 | 30.28227 | -82.68774 | 36989 ft | 387 kts | 350° |
| 2026-05-05 20:57 | 30.33617 | -82.68742 | 36986 ft | 390 kts | 349° |
| 2026-05-05 20:58 | 30.39078 | -82.68712 | 36980 ft | 390 kts | 350° |
| 2026-05-05 20:58 | 30.44503 | -82.68679 | 36978 ft | 391 kts | 350° |
| 2026-05-05 20:59 | 30.49949 | -82.68639 | 36977 ft | 391 kts | 351° |
| 2026-05-05 20:59 | 30.55386 | -82.68088 | 36979 ft | 396 kts | 357° |
| 2026-05-05 21:00 | 30.60856 | -82.67160 | 36978 ft | 398 kts | 357° |
| 2026-05-05 21:00 | 30.66374 | -82.66222 | 36979 ft | 403 kts | 357° |
| 2026-05-05 21:01 | 30.71947 | -82.65300 | 36978 ft | 402 kts | 357° |
| 2026-05-05 21:01 | 30.77467 | -82.64395 | 36980 ft | 396 kts | 357° |
| 2026-05-05 21:02 | 30.82912 | -82.63516 | 36977 ft | 398 kts | 356° |
| 2026-05-05 21:02 | 30.88408 | -82.62639 | 36978 ft | 400 kts | 357° |
| 2026-05-05 21:03 | 30.93961 | -82.61746 | 36980 ft | 397 kts | 356° |
| 2026-05-05 21:03 | 30.99437 | -82.60862 | 36991 ft | 400 kts | 357° |
| 2026-05-05 21:04 | 31.04952 | -82.59975 | 36995 ft | 401 kts | 356° |
| 2026-05-05 21:04 | 31.10501 | -82.59076 | 36995 ft | 398 kts | 357° |
| 2026-05-05 21:05 | 31.15963 | -82.58188 | 36995 ft | 398 kts | 356° |
| 2026-05-05 21:05 | 31.21480 | -82.57305 | 36994 ft | 399 kts | 357° |
| 2026-05-05 21:06 | 31.26983 | -82.56406 | 36994 ft | 398 kts | 357° |
| 2026-05-05 21:06 | 31.32471 | -82.55517 | 36998 ft | 399 kts | 357° |
| 2026-05-05 21:07 | 31.38012 | -82.54626 | 36993 ft | 404 kts | 357° |
| 2026-05-05 21:07 | 31.43546 | -82.53717 | 36994 ft | 399 kts | 358° |
| 2026-05-05 21:08 | 31.49044 | -82.52813 | 36993 ft | 398 kts | 357° |
| 2026-05-05 21:08 | 31.54540 | -82.51914 | 36997 ft | 401 kts | 358° |
| 2026-05-05 21:09 | 31.60115 | -82.51006 | 36993 ft | 403 kts | 358° |
| 2026-05-05 21:09 | 31.65637 | -82.50098 | 36985 ft | 400 kts | 358° |
| 2026-05-05 21:10 | 31.71137 | -82.49200 | 36983 ft | 400 kts | 357° |
| 2026-05-05 21:10 | 31.76675 | -82.48305 | 36979 ft | 401 kts | 358° |
| 2026-05-05 21:11 | 31.82214 | -82.47391 | 36982 ft | 400 kts | 358° |
| 2026-05-05 21:11 | 31.87762 | -82.46486 | 36981 ft | 404 kts | 358° |
| 2026-05-05 21:12 | 31.93292 | -82.45577 | 36982 ft | 401 kts | 358° |
| 2026-05-05 21:12 | 31.98835 | -82.44665 | 36981 ft | 404 kts | 358° |
| 2026-05-05 21:13 | 32.04422 | -82.43742 | 36987 ft | 400 kts | 358° |
| 2026-05-05 21:13 | 32.09940 | -82.42823 | 36991 ft | 403 kts | 358° |
| 2026-05-05 21:14 | 32.15537 | -82.41906 | 36997 ft | 405 kts | 358° |
| 2026-05-05 21:14 | 32.21050 | -82.40986 | 36998 ft | 399 kts | 358° |
| 2026-05-05 21:15 | 32.26610 | -82.40063 | 36993 ft | 402 kts | 358° |
| 2026-05-05 21:15 | 32.32184 | -82.39146 | 36991 ft | 401 kts | 358° |
| 2026-05-05 21:16 | 32.37709 | -82.38228 | 36984 ft | 402 kts | 358° |
| 2026-05-05 21:16 | 32.43255 | -82.37302 | 36985 ft | 401 kts | 358° |
| 2026-05-05 21:17 | 32.48763 | -82.36385 | 36982 ft | 399 kts | 358° |
| 2026-05-05 21:17 | 32.54293 | -82.35465 | 36987 ft | 399 kts | 358° |
| 2026-05-05 21:18 | 32.59798 | -82.34547 | 36992 ft | 401 kts | 358° |
| 2026-05-05 21:18 | 32.65378 | -82.33621 | 36991 ft | 402 kts | 358° |
| 2026-05-05 21:19 | 32.70874 | -82.32694 | 36987 ft | 397 kts | 358° |
| 2026-05-05 21:19 | 32.76351 | -82.31778 | 36990 ft | 399 kts | 358° |
| 2026-05-05 21:20 | 32.81907 | -82.30851 | 36993 ft | 401 kts | 358° |
| 2026-05-05 21:20 | 32.87410 | -82.29923 | 36997 ft | 399 kts | 358° |
| 2026-05-05 21:21 | 32.92933 | -82.28999 | 36995 ft | 400 kts | 357° |
| 2026-05-05 21:21 | 32.98421 | -82.28073 | 36996 ft | 396 kts | 358° |
| 2026-05-05 21:22 | 33.03933 | -82.27142 | 36998 ft | 398 kts | 358° |
| 2026-05-05 21:22 | 33.09459 | -82.26218 | 36992 ft | 400 kts | 358° |
| 2026-05-05 21:23 | 33.15022 | -82.25279 | 36988 ft | 399 kts | 358° |
| 2026-05-05 21:23 | 33.20510 | -82.24341 | 36989 ft | 399 kts | 357° |
| 2026-05-05 21:24 | 33.25993 | -82.23412 | 36990 ft | 399 kts | 358° |
| 2026-05-05 21:24 | 33.31497 | -82.22478 | 36987 ft | 396 kts | 358° |
| 2026-05-05 21:25 | 33.36945 | -82.21546 | 36991 ft | 397 kts | 357° |
| 2026-05-05 21:25 | 33.42457 | -82.20606 | 36992 ft | 397 kts | 358° |
| 2026-05-05 21:26 | 33.47886 | -82.19677 | 36997 ft | 395 kts | 358° |
| 2026-05-05 21:26 | 33.53372 | -82.18757 | 36990 ft | 398 kts | 358° |
| 2026-05-05 21:27 | 33.58876 | -82.17825 | 36983 ft | 397 kts | 357° |
| 2026-05-05 21:27 | 33.64341 | -82.16896 | 36974 ft | 397 kts | 358° |
| 2026-05-05 21:28 | 33.69808 | -82.15961 | 36967 ft | 396 kts | 358° |
| 2026-05-05 21:28 | 33.75282 | -82.15022 | 36962 ft | 398 kts | 358° |
| 2026-05-05 21:29 | 33.80772 | -82.14069 | 36964 ft | 397 kts | 358° |
| 2026-05-05 21:29 | 33.86272 | -82.13133 | 36964 ft | 400 kts | 358° |
| 2026-05-05 21:30 | 33.91765 | -82.12180 | 36966 ft | 399 kts | 358° |
| 2026-05-05 21:30 | 33.97240 | -82.11237 | 36965 ft | 395 kts | 357° |
| 2026-05-05 21:31 | 34.02712 | -82.10288 | 36964 ft | 398 kts | 358° |
| 2026-05-05 21:31 | 34.08157 | -82.09346 | 36969 ft | 395 kts | 358° |
| 2026-05-05 21:32 | 34.13605 | -82.08415 | 36979 ft | 396 kts | 358° |
| 2026-05-05 21:32 | 34.19065 | -82.07468 | 36979 ft | 398 kts | 357° |
| 2026-05-05 21:33 | 34.24516 | -82.06525 | 36984 ft | 393 kts | 357° |
| 2026-05-05 21:33 | 34.29939 | -82.05579 | 36992 ft | 395 kts | 357° |
| 2026-05-05 21:34 | 34.35435 | -82.04627 | 36986 ft | 400 kts | 357° |
| 2026-05-05 21:34 | 34.40939 | -82.03661 | 36987 ft | 395 kts | 358° |
| 2026-05-05 21:35 | 34.46370 | -82.02708 | 36985 ft | 395 kts | 358° |
| 2026-05-05 21:35 | 34.51848 | -82.01764 | 36991 ft | 399 kts | 357° |
| 2026-05-05 21:36 | 34.57357 | -82.00796 | 36987 ft | 397 kts | 357° |
| 2026-05-05 21:36 | 34.62782 | -81.99843 | 36990 ft | 398 kts | 357° |
| 2026-05-05 21:37 | 34.68299 | -81.98885 | 36990 ft | 400 kts | 358° |
| 2026-05-05 21:37 | 34.73785 | -81.97926 | 36994 ft | 398 kts | 357° |
| 2026-05-05 21:38 | 34.79327 | -81.96957 | 36997 ft | 401 kts | 358° |
| 2026-05-05 21:38 | 34.84814 | -81.95982 | 36998 ft | 397 kts | 357° |
| 2026-05-05 21:39 | 34.90257 | -81.95020 | 36996 ft | 395 kts | 356° |
| 2026-05-05 21:39 | 34.95726 | -81.94067 | 36997 ft | 396 kts | 357° |
| 2026-05-05 21:40 | 35.01213 | -81.93162 | 36997 ft | 397 kts | 355° |
| 2026-05-05 21:40 | 35.06593 | -81.93024 | 36990 ft | 383 kts | 346° |
| 2026-05-05 21:41 | 35.11957 | -81.93645 | 36987 ft | 383 kts | 344° |
| 2026-05-05 21:41 | 35.17222 | -81.94327 | 36980 ft | 379 kts | 345° |
| 2026-05-05 21:42 | 35.22463 | -81.94992 | 36987 ft | 382 kts | 345° |
| 2026-05-05 21:42 | 35.27735 | -81.95639 | 36985 ft | 382 kts | 345° |
| 2026-05-05 21:43 | 35.33017 | -81.96300 | 36991 ft | 382 kts | 344° |
| 2026-05-05 21:43 | 35.38332 | -81.96957 | 36995 ft | 385 kts | 345° |
| 2026-05-05 21:44 | 35.43652 | -81.97592 | 37000 ft | 384 kts | 345° |
| 2026-05-05 21:44 | 35.48970 | -81.98233 | 37000 ft | 383 kts | 345° |
| 2026-05-05 21:45 | 35.54282 | -81.98883 | 36998 ft | 385 kts | 345° |
| 2026-05-05 21:45 | 35.59634 | -81.99537 | 36997 ft | 383 kts | 345° |
| 2026-05-05 21:46 | 35.64939 | -82.00195 | 37001 ft | 386 kts | 345° |
| 2026-05-05 21:46 | 35.70258 | -82.00853 | 37003 ft | 384 kts | 345° |
| 2026-05-05 21:47 | 35.75591 | -82.01507 | 37008 ft | 387 kts | 345° |
| 2026-05-05 21:47 | 35.80923 | -82.02154 | 37018 ft | 384 kts | 345° |
| 2026-05-05 21:48 | 35.86242 | -82.02804 | 37033 ft | 385 kts | 344° |
| 2026-05-05 21:48 | 35.91562 | -82.03459 | 37043 ft | 385 kts | 345° |
| 2026-05-05 21:49 | 35.96916 | -82.04126 | 37044 ft | 386 kts | 345° |
| 2026-05-05 21:49 | 36.02226 | -82.04783 | 37046 ft | 383 kts | 344° |
| 2026-05-05 21:50 | 36.07543 | -82.05451 | 37041 ft | 385 kts | 344° |
| 2026-05-05 21:50 | 36.12891 | -82.06113 | 37038 ft | 386 kts | 345° |
| 2026-05-05 21:51 | 36.18197 | -82.06762 | 37029 ft | 382 kts | 344° |
| 2026-05-05 21:51 | 36.23598 | -82.07435 | 37023 ft | 387 kts | 345° |
| 2026-05-05 21:52 | 36.31714 | -82.08448 | 37016 ft | 387 kts | 344° |
| 2026-05-05 21:53 | 36.37056 | -82.09117 | 37010 ft | 385 kts | 345° |
| 2026-05-05 21:53 | 36.42376 | -82.09785 | 37019 ft | 386 kts | 344° |
| 2026-05-05 21:54 | 36.47749 | -82.10465 | 37013 ft | 388 kts | 344° |
| 2026-05-05 21:54 | 36.53088 | -82.11127 | 37009 ft | 388 kts | 345° |
| 2026-05-05 21:55 | 36.58479 | -82.11792 | 37011 ft | 387 kts | 344° |
| 2026-05-05 21:55 | 36.63841 | -82.12467 | 37003 ft | 388 kts | 344° |
| 2026-05-05 21:56 | 36.69193 | -82.13142 | 37004 ft | 386 kts | 344° |
| 2026-05-05 21:56 | 36.74598 | -82.13828 | 36998 ft | 387 kts | 344° |
| 2026-05-05 21:57 | 36.79987 | -82.14502 | 36989 ft | 390 kts | 344° |
| 2026-05-05 21:57 | 36.85344 | -82.15172 | 36989 ft | 388 kts | 344° |
| 2026-05-05 21:58 | 36.90756 | -82.15862 | 36984 ft | 390 kts | 344° |
| 2026-05-05 21:58 | 36.96145 | -82.16538 | 36983 ft | 387 kts | 344° |
| 2026-05-05 21:59 | 37.01509 | -82.17228 | 36984 ft | 387 kts | 345° |
| 2026-05-05 21:59 | 37.06850 | -82.17902 | 36983 ft | 388 kts | 343° |
| 2026-05-05 22:00 | 37.12252 | -82.18597 | 36963 ft | 391 kts | 344° |
| 2026-05-05 22:00 | 37.17651 | -82.19280 | 36955 ft | 388 kts | 345° |
| 2026-05-05 22:01 | 37.23044 | -82.19965 | 36942 ft | 389 kts | 344° |
| 2026-05-05 22:01 | 37.28416 | -82.20650 | 36937 ft | 388 kts | 344° |
| 2026-05-05 22:02 | 37.33784 | -82.21345 | 36933 ft | 390 kts | 344° |
| 2026-05-05 22:02 | 37.39222 | -82.22048 | 36933 ft | 392 kts | 344° |
| 2026-05-05 22:03 | 37.44611 | -82.22742 | 36930 ft | 390 kts | 343° |
| 2026-05-05 22:03 | 37.50031 | -82.23436 | 36932 ft | 389 kts | 343° |
| 2026-05-05 22:04 | 37.55411 | -82.24122 | 36927 ft | 389 kts | 344° |
| 2026-05-05 22:04 | 37.60772 | -82.24805 | 36925 ft | 389 kts | 344° |
| 2026-05-05 22:05 | 37.66168 | -82.25510 | 36917 ft | 390 kts | 344° |
| 2026-05-05 22:05 | 37.71563 | -82.26215 | 36916 ft | 393 kts | 343° |
| 2026-05-05 22:06 | 37.76965 | -82.26915 | 36914 ft | 390 kts | 344° |
| 2026-05-05 22:06 | 37.82352 | -82.27613 | 36907 ft | 390 kts | 343° |
| 2026-05-05 22:07 | 37.87750 | -82.28320 | 36900 ft | 392 kts | 343° |
| 2026-05-05 22:07 | 37.93192 | -82.29024 | 36900 ft | 392 kts | 343° |
| 2026-05-05 22:08 | 37.98588 | -82.29729 | 36899 ft | 392 kts | 343° |
| 2026-05-05 22:08 | 38.04020 | -82.30437 | 36889 ft | 391 kts | 343° |
| 2026-05-05 22:09 | 38.09439 | -82.31143 | 36887 ft | 391 kts | 343° |
| 2026-05-05 22:09 | 38.14854 | -82.31857 | 36883 ft | 391 kts | 343° |
| 2026-05-05 22:10 | 38.20225 | -82.32564 | 36888 ft | 389 kts | 343° |
| 2026-05-05 22:10 | 38.25641 | -82.33263 | 36881 ft | 392 kts | 343° |
| 2026-05-05 22:11 | 38.31067 | -82.33975 | 36871 ft | 390 kts | 343° |
| 2026-05-05 22:11 | 38.36446 | -82.34683 | 36883 ft | 393 kts | 343° |
| 2026-05-05 22:12 | 38.41891 | -82.35407 | 36875 ft | 392 kts | 343° |
| 2026-05-05 22:12 | 38.47260 | -82.36124 | 36876 ft | 388 kts | 343° |
| 2026-05-05 22:13 | 38.52703 | -82.36846 | 36870 ft | 393 kts | 343° |
| 2026-05-05 22:13 | 38.58107 | -82.37558 | 36867 ft | 391 kts | 343° |
| 2026-05-05 22:14 | 38.63511 | -82.38275 | 36865 ft | 390 kts | 343° |
| 2026-05-05 22:14 | 38.68909 | -82.38988 | 36859 ft | 391 kts | 343° |
| 2026-05-05 22:15 | 38.74298 | -82.39693 | 36850 ft | 391 kts | 343° |
| 2026-05-05 22:15 | 38.79726 | -82.40424 | 36850 ft | 392 kts | 343° |
| 2026-05-05 22:16 | 38.85152 | -82.41138 | 36843 ft | 392 kts | 343° |
| 2026-05-05 22:16 | 38.90536 | -82.41849 | 36845 ft | 391 kts | 343° |
| 2026-05-05 22:17 | 38.95957 | -82.42577 | 36847 ft | 392 kts | 343° |
| 2026-05-05 22:17 | 39.01379 | -82.43320 | 36843 ft | 392 kts | 343° |
| 2026-05-05 22:18 | 39.06795 | -82.44043 | 36847 ft | 390 kts | 343° |
| 2026-05-05 22:18 | 39.12192 | -82.44767 | 36856 ft | 394 kts | 343° |
| 2026-05-05 22:19 | 39.17644 | -82.45512 | 36864 ft | 393 kts | 343° |
| 2026-05-05 22:19 | 39.23074 | -82.46237 | 36858 ft | 390 kts | 343° |
| 2026-05-05 22:20 | 39.28466 | -82.46967 | 36859 ft | 390 kts | 343° |
| 2026-05-05 22:20 | 39.33875 | -82.47707 | 36849 ft | 394 kts | 343° |
| 2026-05-05 22:21 | 39.39304 | -82.48438 | 36841 ft | 394 kts | 343° |
| 2026-05-05 22:21 | 39.44757 | -82.49177 | 36850 ft | 393 kts | 343° |
| 2026-05-05 22:22 | 39.50224 | -82.49914 | 36849 ft | 395 kts | 343° |
| 2026-05-05 22:22 | 39.55709 | -82.50678 | 36847 ft | 396 kts | 343° |
| 2026-05-05 22:23 | 39.61143 | -82.51405 | 36843 ft | 391 kts | 343° |
| 2026-05-05 22:23 | 39.66619 | -82.52151 | 36844 ft | 396 kts | 343° |
| 2026-05-05 22:24 | 39.72140 | -82.52916 | 36850 ft | 398 kts | 343° |
| 2026-05-05 22:24 | 39.77618 | -82.53664 | 36851 ft | 396 kts | 343° |
| 2026-05-05 22:25 | 39.83094 | -82.54400 | 36848 ft | 392 kts | 343° |
| 2026-05-05 22:25 | 39.88569 | -82.55163 | 36844 ft | 398 kts | 343° |
| 2026-05-05 22:26 | 39.94080 | -82.55914 | 36841 ft | 398 kts | 343° |
| 2026-05-05 22:26 | 39.99564 | -82.56673 | 36840 ft | 399 kts | 343° |
| 2026-05-05 22:27 | 40.05088 | -82.57447 | 36852 ft | 399 kts | 343° |
| 2026-05-05 22:27 | 40.10570 | -82.58212 | 36843 ft | 396 kts | 342° |
| 2026-05-05 22:28 | 40.15860 | -82.59611 | 36854 ft | 381 kts | 331° |
| 2026-05-05 22:28 | 40.20493 | -82.62723 | 36850 ft | 368 kts | 320° |
| 2026-05-05 22:28 | 40.22637 | -82.64545 | 36657 ft | 373 kts | 320° |
| 2026-05-05 22:29 | 40.24825 | -82.66434 | 36123 ft | 376 kts | 319° |
| 2026-05-05 22:29 | 40.26989 | -82.68279 | 35606 ft | 375 kts | 319° |
| 2026-05-05 22:29 | 40.29183 | -82.70136 | 35027 ft | 377 kts | 319° |
| 2026-05-05 22:29 | 40.31404 | -82.72008 | 34250 ft | 380 kts | 319° |
| 2026-05-05 22:30 | 40.33633 | -82.73895 | 33473 ft | 384 kts | 319° |
| 2026-05-05 22:30 | 40.35861 | -82.75814 | 32691 ft | 390 kts | 319° |
| 2026-05-05 22:30 | 40.38149 | -82.77806 | 31886 ft | 394 kts | 320° |
| 2026-05-05 22:30 | 40.40425 | -82.79784 | 30903 ft | 398 kts | 319° |
| 2026-05-05 22:31 | 40.42743 | -82.81802 | 29443 ft | 420 kts | 319° |
| 2026-05-05 22:31 | 40.45249 | -82.84000 | 28668 ft | 440 kts | 320° |
| 2026-05-05 22:31 | 40.47795 | -82.86210 | 28571 ft | 444 kts | 320° |
| 2026-05-05 22:32 | 40.52991 | -82.90688 | 28462 ft | 451 kts | 321° |
| 2026-05-05 22:32 | 40.58304 | -82.95259 | 28320 ft | 458 kts | 321° |
| 2026-05-05 22:33 | 40.63633 | -82.99847 | 28124 ft | 462 kts | 320° |
| 2026-05-05 22:33 | 40.66314 | -83.02159 | 27473 ft | 457 kts | 321° |
| 2026-05-05 22:33 | 40.68914 | -83.04394 | 26869 ft | 445 kts | 320° |
| 2026-05-05 22:33 | 40.71476 | -83.06592 | 26245 ft | 434 kts | 320° |
| 2026-05-05 22:34 | 40.73971 | -83.08725 | 25662 ft | 423 kts | 321° |
| 2026-05-05 22:34 | 40.76390 | -83.10809 | 25190 ft | 411 kts | 320° |
| 2026-05-05 22:34 | 40.78732 | -83.12856 | 24789 ft | 397 kts | 319° |
| 2026-05-05 22:34 | 40.80992 | -83.14859 | 24502 ft | 384 kts | 319° |
| 2026-05-05 22:35 | 40.83184 | -83.16773 | 24183 ft | 373 kts | 320° |
| 2026-05-05 22:35 | 40.85335 | -83.18595 | 23871 ft | 361 kts | 320° |
| 2026-05-05 22:35 | 40.87404 | -83.20362 | 23591 ft | 350 kts | 320° |
| 2026-05-05 22:35 | 40.89406 | -83.22086 | 23298 ft | 339 kts | 319° |
| 2026-05-05 22:36 | 40.91344 | -83.23789 | 22888 ft | 333 kts | 317° |
| 2026-05-05 22:36 | 40.93219 | -83.25542 | 22402 ft | 329 kts | 318° |
| 2026-05-05 22:36 | 40.95099 | -83.27252 | 21844 ft | 330 kts | 319° |
| 2026-05-05 22:36 | 40.97013 | -83.28926 | 21271 ft | 331 kts | 319° |
| 2026-05-05 22:37 | 40.98936 | -83.30595 | 20720 ft | 331 kts | 319° |
| 2026-05-05 22:37 | 41.00862 | -83.32224 | 20296 ft | 327 kts | 320° |
| 2026-05-05 22:37 | 41.02760 | -83.33839 | 19780 ft | 325 kts | 319° |
| 2026-05-05 22:37 | 41.04631 | -83.35452 | 19258 ft | 326 kts | 321° |
| 2026-05-05 22:38 | 41.06580 | -83.37048 | 18724 ft | 328 kts | 322° |
| 2026-05-05 22:38 | 41.08645 | -83.38371 | 18174 ft | 338 kts | 335° |
| 2026-05-05 22:38 | 41.10969 | -83.38920 | 17662 ft | 346 kts | 351° |
| 2026-05-05 22:38 | 41.13394 | -83.38934 | 17132 ft | 348 kts | 355° |
| 2026-05-05 22:39 | 41.15799 | -83.38879 | 16636 ft | 344 kts | 354° |
| 2026-05-05 22:39 | 41.18176 | -83.38847 | 16158 ft | 339 kts | 354° |
| 2026-05-05 22:39 | 41.20521 | -83.38860 | 15617 ft | 336 kts | 353° |
| 2026-05-05 22:39 | 41.22844 | -83.38895 | 15109 ft | 332 kts | 353° |
| 2026-05-05 22:40 | 41.25120 | -83.38919 | 14618 ft | 330 kts | 352° |
| 2026-05-05 22:40 | 41.27407 | -83.38942 | 14069 ft | 330 kts | 353° |
| 2026-05-05 22:40 | 41.29700 | -83.38968 | 13595 ft | 327 kts | 353° |
| 2026-05-05 22:40 | 41.31967 | -83.39006 | 13188 ft | 324 kts | 353° |
| 2026-05-05 22:41 | 41.34205 | -83.39037 | 12785 ft | 321 kts | 353° |
| 2026-05-05 22:41 | 41.36439 | -83.39044 | 12330 ft | 319 kts | 354° |
| 2026-05-05 22:41 | 41.38625 | -83.39040 | 11914 ft | 316 kts | 354° |
| 2026-05-05 22:41 | 41.40801 | -83.39032 | 11736 ft | 304 kts | 353° |
| 2026-05-05 22:42 | 41.42867 | -83.39061 | 11546 ft | 295 kts | 353° |
| 2026-05-05 22:42 | 41.44882 | -83.39065 | 11389 ft | 284 kts | 354° |
| 2026-05-05 22:42 | 41.46827 | -83.39053 | 11226 ft | 275 kts | 352° |
| 2026-05-05 22:42 | 41.48719 | -83.39064 | 11018 ft | 268 kts | 352° |
| 2026-05-05 22:43 | 41.50562 | -83.39060 | 10810 ft | 262 kts | 352° |
| 2026-05-05 22:43 | 41.52391 | -83.39013 | 10523 ft | 261 kts | 354° |
| 2026-05-05 22:43 | 41.54184 | -83.38937 | 10224 ft | 260 kts | 354° |
| 2026-05-05 22:43 | 41.55980 | -83.38899 | 9889 ft | 259 kts | 353° |
| 2026-05-05 22:44 | 41.57789 | -83.38882 | 9568 ft | 259 kts | 353° |
| 2026-05-05 22:44 | 41.59589 | -83.38865 | 9289 ft | 256 kts | 353° |
| 2026-05-05 22:44 | 41.61322 | -83.39025 | 8997 ft | 243 kts | 334° |
| 2026-05-05 22:44 | 41.62599 | -83.40190 | 8852 ft | 208 kts | 295° |
| 2026-05-05 22:45 | 41.63059 | -83.41886 | 8708 ft | 188 kts | 275° |
| 2026-05-05 22:45 | 41.63306 | -83.43570 | 8490 ft | 185 kts | 278° |
| 2026-05-05 22:45 | 41.63634 | -83.45230 | 8163 ft | 187 kts | 281° |
| 2026-05-05 22:45 | 41.64006 | -83.46912 | 7843 ft | 188 kts | 281° |
| 2026-05-05 22:46 | 41.64359 | -83.48589 | 7541 ft | 187 kts | 280° |
| 2026-05-05 22:46 | 41.64700 | -83.50252 | 7263 ft | 186 kts | 279° |
| 2026-05-05 22:46 | 41.65048 | -83.51919 | 7059 ft | 180 kts | 281° |
| 2026-05-05 22:46 | 41.65376 | -83.53476 | 6929 ft | 170 kts | 280° |
| 2026-05-05 22:47 | 41.65678 | -83.54954 | 6762 ft | 163 kts | 279° |
| 2026-05-05 22:47 | 41.65975 | -83.56418 | 6494 ft | 161 kts | 279° |
| 2026-05-05 22:47 | 41.66200 | -83.57870 | 6164 ft | 161 kts | 269° |
| 2026-05-05 22:47 | 41.65999 | -83.59312 | 5811 ft | 161 kts | 248° |
| 2026-05-05 22:48 | 41.65499 | -83.60665 | 5503 ft | 162 kts | 244° |
| 2026-05-05 22:48 | 41.65029 | -83.61993 | 5243 ft | 153 kts | 249° |
| 2026-05-05 22:48 | 41.64618 | -83.63274 | 4882 ft | 148 kts | 248° |
| 2026-05-05 22:48 | 41.64196 | -83.64489 | 4496 ft | 145 kts | 248° |
| 2026-05-05 22:49 | 41.63770 | -83.65722 | 4031 ft | 149 kts | 249° |
| 2026-05-05 22:49 | 41.63328 | -83.66989 | 3568 ft | 152 kts | 249° |
| 2026-05-05 22:49 | 41.62886 | -83.68265 | 3125 ft | 153 kts | 253° |
| 2026-05-05 22:49 | 41.62670 | -83.69627 | 2710 ft | 151 kts | 259° |
| 2026-05-05 22:50 | 41.62100 | -83.70800 | 2394 ft | 150 kts | 229° |
| 2026-05-05 22:50 | 41.61485 | -83.71853 | 2168 ft | 147 kts | 240° |
| 2026-05-05 22:50 | 41.61005 | -83.73062 | 1859 ft | 145 kts | 249° |
| 2026-05-05 22:50 | 41.60612 | -83.74290 | 1632 ft | 146 kts | 253° |
| 2026-05-05 22:51 | 41.60345 | -83.75588 | 1463 ft | 148 kts | 258° |
| 2026-05-05 22:51 | 41.59977 | -83.76895 | 1272 ft | 148 kts | 254° |
| 2026-05-05 22:51 | 41.59666 | -83.78200 | 986 ft | 148 kts | 250° |
| 2026-05-05 22:51 | 41.59275 | -83.79462 | 722 ft | 147 kts | 248° |
| 2026-05-05 22:52 | 41.58918 | -83.80608 | 680 ft | 106 kts | 247° |
| 2026-05-05 22:52 | 41.58709 | -83.81268 | 683 ft | 56 kts | 247° |
| 2026-05-05 22:52 | 41.58591 | -83.81641 | 681 ft | 35 kts | 246° |
| 2026-05-05 22:52 | 41.58532 | -83.81805 | 681 ft | 10 kts | 221° |
| 2026-05-05 22:53 | 41.58459 | -83.81808 | 681 ft | 10 kts | 159° |
| 2026-05-05 22:53 | 41.58405 | -83.81776 | 681 ft | 8 kts | 155° |
| 2026-05-05 22:53 | 41.58355 | -83.81746 | 682 ft | 8 kts | 155° |
| 2026-05-05 22:53 | 41.58340 | -83.81681 | 681 ft | 11 kts | 71° |
| 2026-05-05 22:54 | 41.58384 | -83.81539 | 681 ft | 17 kts | 67° |
| 2026-05-05 22:54 | 41.58430 | -83.81395 | 681 ft | 16 kts | 66° |
| 2026-05-05 22:54 | 41.58476 | -83.81252 | 681 ft | 16 kts | 75° |
| 2026-05-05 22:54 | 41.58426 | -83.81141 | 681 ft | 9 kts | 156° |
| 2026-05-05 22:55 | 41.58410 | -83.81132 | 681 ft | 0 kts | 156° |